Data for 05/04/2007

Time Sea-Level Adjusted Pressure Absolute Pressure Temperature Relative Humidity Dew Point   
(mb) (inHg) (mb) (inHg) (C) (F) (%) (C) (F)
00:05 1011 29.85 840 24.81 1.4 34.6 81 -1.5 29.3
00:10 1011 29.85 840 24.81 1.3 34.4 80 -1.8 28.8
00:15 1011 29.85 840 24.81 1.3 34.4 80 -1.8 28.8
00:20 1011 29.85 840 24.81 1.4 34.5 77 -2.1 28.2
00:25 1011 29.85 840 24.81 1.4 34.5 82 -1.4 29.5
00:30 1011 29.85 840 24.81 1.2 34.1 83 -1.5 29.4
00:35 1011 29.85 840 24.81 0.9 33.6 86 -1.2 29.9
00:40 1011 29.85 840 24.81 0.8 33.4 86 -1.3 29.6
00:45 1011 29.85 840 24.81 0.7 33.3 87 -1.2 29.8
00:50 1011 29.85 840 24.81 0.8 33.4 86 -1.3 29.6
00:55 1011 29.85 840 24.81 0.8 33.5 86 -1.3 29.6
01:00 1011 29.85 840 24.81 0.9 33.6 84 -1.5 29.3
01:05 1011 29.85 840 24.81 1 33.8 81 -1.9 28.5
01:10 1011 29.85 840 24.81 1.1 33.9 81 -1.8 28.8
01:15 1011 29.85 840 24.81 1.1 34 80 -1.9 28.6
01:20 1011 29.85 840 24.81 1.1 34 79 -2.1 28.2
01:25 1011 29.85 840 24.81 1.1 34 82 -1.6 29
01:30 1011 29.85 840 24.81 1 33.9 83 -1.6 29.2
01:35 1011 29.85 840 24.81 0.9 33.7 85 -1.3 29.7
01:40 1011 29.85 840 24.81 0.9 33.6 86 -1.3 29.7
01:45 1011 29.85 840 24.81 0.8 33.4 87 -1.1 30
01:50 1011 29.85 840 24.81 0.7 33.2 88 -1.1 30
01:55 1011 29.85 840 24.81 0.6 33.1 88 -1.3 29.7
02:00 1011 29.85 840 24.81 0.5 32.9 88 -1.3 29.7
02:05 1011 29.85 840 24.81 0.5 32.8 89 -1.1 30
02:10 1011 29.85 840 24.81 0.4 32.7 89 -1.3 29.7
02:15 1011 29.85 840 24.81 0.4 32.7 89 -1.2 29.8
02:20 1011 29.85 840 24.81 0.4 32.7 88 -1.3 29.6
02:25 1011 29.85 840 24.81 0.3 32.5 88 -1.4 29.4
02:30 1011 29.85 840 24.81 0.3 32.6 88 -1.4 29.5
02:35 1011 29.85 840 24.81 0.2 32.4 89 -1.3 29.7
02:40 1011 29.85 840 24.81 0.1 32.2 90 -1.3 29.6
02:45 1011 29.85 840 24.81 0.2 32.4 89 -1.4 29.6
02:50 1011 29.85 840 24.81 0.2 32.4 89 -1.5 29.4
02:55 1011 29.85 840 24.81 0.2 32.4 88 -1.6 29.1
03:00 1011 29.85 840 24.81 0.3 32.5 87 -1.6 29.1
03:05 1011 29.85 840 24.81 0.3 32.5 87 -1.6 29.1
03:10 1011 29.85 840 24.81 0.2 32.4 87 -1.7 29
03:15 1011 29.85 840 24.81 0.2 32.4 85 -2 28.4
03:20 1011 29.85 840 24.81 0.3 32.5 85 -2 28.5
03:25 1011 29.85 840 24.81 0.4 32.7 85 -1.8 28.8
03:30 1011 29.85 840 24.81 0.5 32.8 83 -2.1 28.3
03:35 1011 29.85 840 24.81 0.6 33.1 76 -3.1 26.5
03:40 1011 29.85 840 24.81 0.8 33.4 72 -3.7 25.3
03:45 1011 29.85 840 24.81 0.7 33.2 73 -3.6 25.5
03:50 1011 29.85 840 24.81 0.3 32.5 77 -3.3 26.1
03:55 1011 29.85 840 24.81 0.1 32.2 73 -4.1 24.6
04:00 1011 29.85 840 24.81 -0.2 31.7 75 -4.1 24.7
04:05 1011 29.85 840 24.81 -0 32 76 -3.8 25.2
04:10 1011 29.85 840 24.81 -0.2 31.7 75 -4 24.8
04:15 1011 29.85 840 24.81 -0.1 31.8 75 -3.9 24.9
04:20 1011 29.85 840 24.81 -0 31.9 73 -4.3 24.3
04:25 1011 29.85 840 24.81 -0.2 31.7 76 -3.9 25
04:30 1011 29.85 840 24.81 -0.1 31.8 76 -3.8 25.2
04:35 1011 29.85 840 24.81 -0.1 31.7 77 -3.7 25.4
04:40 1011 29.85 840 24.81 -0.2 31.6 76 -3.9 24.9
04:45 1011 29.85 840 24.81 -0.3 31.5 79 -3.5 25.7
04:50 1011 29.85 840 24.81 -0.3 31.5 79 -3.6 25.6
04:55 1011 29.85 840 24.81 -0.2 31.7 81 -3.1 26.5
05:00 1011 29.85 840 24.81 -0.2 31.6 81 -3.1 26.3
05:05 1011 29.85 840 24.81 -0.2 31.6 81 -3.1 26.4
05:10 1011 29.85 840 24.81 -0.1 31.8 80 -3.2 26.2
05:15 1011 29.85 840 24.81 -0.1 31.9 79 -3.4 26
05:20 1011 29.85 840 24.81 -0.1 31.9 77 -3.6 25.5
05:25 1011 29.85 840 24.81 0.1 32.1 77 -3.5 25.7
05:30 1011 29.85 840 24.81 0.1 32.1 76 -3.6 25.6
05:35 1011 29.85 840 24.81 0.2 32.4 74 -3.9 25
05:40 1011 29.85 840 24.81 0.2 32.3 76 -3.6 25.6
05:45 1010 29.83 840 24.81 -0 32 78 -3.4 25.9
05:50 1010 29.83 840 24.81 -0.1 31.8 79 -3.3 26.1
05:55 1010 29.83 840 24.81 -0.2 31.6 76 -3.9 24.9
06:00 1010 29.83 840 24.81 -0.2 31.7 78 -3.6 25.5
06:05 1010 29.83 839 24.78 -0.1 31.7 78 -3.5 25.8
06:10 1010 29.83 839 24.78 -0.2 31.6 78 -3.7 25.3
06:15 1010 29.83 840 24.81 -0.3 31.5 78 -3.6 25.5
06:20 1010 29.83 839 24.78 -0.3 31.4 80 -3.4 25.8
06:25 1010 29.83 839 24.78 -0.3 31.5 80 -3.4 25.9
06:30 1010 29.83 840 24.81 0 32.1 76 -3.6 25.5
06:35 1010 29.83 840 24.81 0.1 32.3 77 -3.4 25.9
06:40 1010 29.83 840 24.81 -0.4 31.2 81 -3.3 26.1
06:45 1011 29.85 840 24.81 -0.7 30.8 81 -3.5 25.8
06:50 1011 29.85 840 24.81 -0.6 30.9 80 -3.6 25.5
06:55 1011 29.85 840 24.81 -0.6 30.9 80 -3.7 25.3
07:00 1011 29.85 840 24.81 -0.6 31 80 -3.7 25.4
07:05 1011 29.85 840 24.81 -0.6 30.9 83 -3.2 26.3
07:10 1011 29.85 840 24.81 -0.7 30.7 83 -3.2 26.3
07:15 1011 29.85 840 24.81 -0.6 30.9 83 -3.2 26.3
07:20 1011 29.85 840 24.81 -0.4 31.3 82 -3.1 26.5
07:25 1011 29.85 840 24.81 -0 31.9 80 -3.1 26.5
07:30 1011 29.85 840 24.81 0.4 32.7 78 -3.1 26.5
07:35 1011 29.85 840 24.81 0.4 32.8 78 -3 26.6
07:40 1011 29.85 841 24.83 0.7 33.3 74 -3.3 26
07:45 1011 29.85 841 24.83 0.8 33.5 74 -3.2 26.2
07:50 1011 29.85 841 24.83 1 33.7 74 -3.2 26.2
07:55 1011 29.85 841 24.83 1.1 34 74 -3.1 26.4
08:00 1011 29.85 841 24.83 1.1 34.1 73 -3.2 26.2
08:05 1011 29.85 841 24.83 1.4 34.6 71 -3.2 26.2
08:10 1011 29.85 841 24.83 1.4 34.6 73 -3 26.7
08:15 1011 29.85 841 24.83 1.3 34.4 73 -3.1 26.5
08:20 1011 29.85 841 24.83 1.2 34.2 73 -3.1 26.5
08:25 1012 29.88 841 24.83 1 33.8 72 -3.5 25.6
08:30 1012 29.88 841 24.83 1.4 34.5 68 -4 24.9
08:35 1012 29.88 841 24.83 2.4 36.4 64 -3.7 25.3
08:40 1012 29.88 841 24.83 3.3 37.9 61 -3.6 25.5
08:45 1012 29.88 841 24.83 4 39.2 56 -4.1 24.6
08:50 1011 29.85 841 24.83 3.8 38.8 58 -3.8 25.2
08:55 1011 29.85 841 24.83 3.9 39.1 59 -3.3 26.1
09:00 1011 29.85 841 24.83 4.4 39.9 57 -3.3 26.1
09:05 1011 29.85 841 24.83 4.8 40.6 55 -3.6 25.6
09:10 1011 29.85 841 24.83 4.3 39.7 60 -2.8 26.9
09:15 1011 29.85 841 24.83 3.6 38.6 59 -3.7 25.4
09:20 1011 29.85 841 24.83 4.1 39.4 58 -3.4 25.8
09:25 1011 29.85 841 24.83 3.7 38.7 59 -3.6 25.5
09:30 1011 29.85 841 24.83 4.6 40.3 56 -3.5 25.8
09:35 1011 29.85 841 24.83 5 41 53 -3.7 25.4
09:40 1011 29.85 841 24.83 5.6 42 54 -3.1 26.4
09:45 1011 29.85 841 24.83 5.5 42 52 -3.6 25.6
09:50 1011 29.85 840 24.81 5.7 42.3 53 -3.2 26.3
09:55 1011 29.85 840 24.81 6.1 42.9 51 -3.2 26.2
10:00 1011 29.85 840 24.81 6.2 43.2 50 -3.4 25.9
10:05 1011 29.85 840 24.81 6.6 43.8 48 -3.7 25.4
10:10 1011 29.85 840 24.81 6.6 43.9 49 -3.4 25.9
10:15 1011 29.85 840 24.81 6.4 43.6 49 -3.6 25.5
10:20 1011 29.85 840 24.81 6.1 42.9 50 -3.5 25.7
10:25 1011 29.85 840 24.81 6.1 43 51 -3.4 26
10:30 1011 29.85 840 24.81 6 42.8 51 -3.4 26
10:35 1011 29.85 840 24.81 5.9 42.6 50 -3.6 25.5
10:40 1011 29.85 840 24.81 5.9 42.7 49 -3.9 24.9
10:45 1011 29.85 840 24.81 5.9 42.6 50 -3.7 25.3
10:50 1011 29.85 840 24.81 6.5 43.6 48 -3.7 25.3
10:55 1011 29.85 840 24.81 6.3 43.4 46 -4.5 23.9
11:00 1011 29.85 840 24.81 5.6 42 49 -4.4 24
11:05 1011 29.85 840 24.81 6 42.8 46 -4.8 23.3
11:10 1011 29.85 840 24.81 6.3 43.3 47 -4.3 24.3
11:15 1011 29.85 840 24.81 6.7 44.1 43 -5.1 22.8
11:20 1011 29.85 840 24.81 6.9 44.4 40 -6 21.3
11:25 1011 29.85 840 24.81 7.8 46 43 -4.1 24.6
11:30 1011 29.85 840 24.81 6.9 44.5 45 -4.3 24.3
11:35 1011 29.85 840 24.81 6.4 43.5 46 -4.5 23.8
11:40 1011 29.85 840 24.81 6.3 43.4 46 -4.5 23.9
11:45 1011 29.85 840 24.81 6.8 44.2 41 -5.5 22.1
11:50 1011 29.85 840 24.81 8.1 46.5 37 -5.8 21.6
11:55 1011 29.85 840 24.81 8.2 46.7 36 -6.2 20.9
12:00 1011 29.85 840 24.81 7.9 46.2 31 -8.3 17.1
12:05 1011 29.85 840 24.81 7.3 45.1 32 -8.3 17.1
12:10 1011 29.85 840 24.81 6.8 44.3 36 -7.4 18.7
12:15 1011 29.85 840 24.81 7.4 45.2 33 -7.7 18.1
12:20 1011 29.85 840 24.81 7 44.6 35 -7.6 18.4
12:25 1011 29.85 840 24.81 6.9 44.4 35 -7.5 18.5
12:30 1011 29.85 840 24.81 7.5 45.4 33 -7.6 18.3
12:35 1010 29.83 840 24.81 7.6 45.7 32 -7.9 17.9
12:40 1010 29.83 840 24.81 8.3 46.9 31 -7.8 18
12:45 1010 29.83 840 24.81 8.3 47 30 -8.1 17.4
12:50 1010 29.83 840 24.81 8.4 47.1 29 -8.4 16.9
12:55 1010 29.83 840 24.81 7.9 46.3 32 -7.9 17.8
13:00 1010 29.83 839 24.78 7.9 46.1 31 -8.1 17.5
13:05 1010 29.83 840 24.81 8.4 47 32 -7.3 18.9
13:10 1010 29.83 840 24.81 8.5 47.2 32 -7.2 19.1
13:15 1010 29.83 840 24.81 8.3 46.9 31 -7.8 18
13:20 1010 29.83 839 24.78 7.4 45.4 32 -8.3 17.1
13:25 1010 29.83 839 24.78 7.6 45.7 31 -8.3 17.1
13:30 1010 29.83 839 24.78 7.8 46 31 -8.2 17.3
13:35 1010 29.83 839 24.78 8.2 46.8 30 -8.4 16.8
13:40 1010 29.83 839 24.78 8.6 47.5 33 -6.9 19.6
13:45 1010 29.83 839 24.78 8.4 47.2 32 -7.5 18.5
13:50 1010 29.83 839 24.78 8.2 46.8 31 -8 17.6
13:55 1010 29.83 839 24.78 8.5 47.3 28 -9.2 15.5
14:00 1010 29.83 839 24.78 9.1 48.4 30 -7.7 18.2
14:05 1010 29.83 839 24.78 9 48.2 29 -8.1 17.4
14:10 1010 29.83 839 24.78 9.5 49.1 26 -9.1 15.6
14:15 1010 29.83 839 24.78 9.3 48.8 27 -8.9 15.9
14:20 1010 29.83 839 24.78 9.8 49.7 26 -8.6 16.5
14:25 1010 29.83 839 24.78 10.1 50.3 26 -8.7 16.3
14:30 1010 29.83 839 24.78 10.1 50.2 26 -8.4 16.9
14:35 1010 29.83 839 24.78 9.7 49.4 29 -7.5 18.6
14:40 1010 29.83 839 24.78 9.9 49.9 29 -7.5 18.6
14:45 1010 29.83 839 24.78 10.4 50.8 26 -8.1 17.5
14:50 1010 29.83 839 24.78 10.4 50.6 26 -8.1 17.4
14:55 1010 29.83 839 24.78 10.5 50.8 26 -8.3 17
15:00 1010 29.83 839 24.78 10.2 50.3 27 -8.1 17.4
15:05 1010 29.83 839 24.78 10.4 50.6 26 -8.1 17.5
15:10 1010 29.83 839 24.78 10.5 50.9 26 -8.4 16.9
15:15 1010 29.83 839 24.78 10.4 50.7 26 -8.4 16.8
15:20 1010 29.83 839 24.78 10.4 50.8 25 -9 15.8
15:25 1010 29.83 839 24.78 10.8 51.4 26 -8.1 17.4
15:30 1010 29.83 839 24.78 10.4 50.8 24 -9.3 15.3
15:35 1010 29.83 839 24.78 10.5 50.8 24 -9.4 15.1
15:40 1010 29.83 839 24.78 9.9 49.8 24 -9.5 14.8
15:45 1010 29.83 839 24.78 10.6 51.1 26 -8.2 17.2
15:50 1010 29.83 839 24.78 11.3 52.3 23 -9.3 15.3
15:55 1010 29.83 839 24.78 11.1 52.1 24 -8.8 16.2
16:00 1010 29.83 839 24.78 11.3 52.4 21 -10.1 13.9
16:05 1010 29.83 839 24.78 11.2 52.1 21 -10.5 13.1
16:10 1010 29.83 839 24.78 10.9 51.6 21 -10.4 13.4
16:15 1010 29.83 839 24.78 10.5 50.8 22 -10.6 13
16:20 1010 29.83 839 24.78 10.4 50.7 20 -11.6 11.2
16:25 1010 29.83 839 24.78 10.2 50.4 22 -10.8 12.5
16:30 1010 29.83 839 24.78 10.2 50.3 23 -10.1 13.8
16:35 1010 29.83 839 24.78 10.9 51.7 21 -10.3 13.4
16:40 1010 29.83 839 24.78 11.1 52 22 -9.7 14.5
16:45 1010 29.83 839 24.78 11 51.8 21 -10.4 13.2
16:50 1010 29.83 839 24.78 11.1 51.9 21 -10.3 13.4
16:55 1010 29.83 839 24.78 10.7 51.3 23 -9.8 14.3
17:00 1010 29.83 839 24.78 10.3 50.5 24 -9.6 14.8
17:05 1010 29.83 839 24.78 10 50 24 -9.6 14.7
17:10 1010 29.83 839 24.78 10.3 50.6 22 -10.4 13.3
17:15 1010 29.83 839 24.78 10.9 51.5 23 -9.5 14.9
17:20 1010 29.83 839 24.78 10.4 50.7 22 -10.3 13.5
17:25 1010 29.83 839 24.78 10.1 50.1 21 -11.1 12
17:30 1010 29.83 839 24.78 10.3 50.5 23 -10.1 13.8
17:35 1010 29.83 839 24.78 10.3 50.6 22 -10.5 13.2
17:40 1010 29.83 839 24.78 10.4 50.8 22 -10.7 12.8
17:45 1010 29.83 839 24.78 10.1 50.2 22 -10.4 13.2
17:50 1010 29.83 839 24.78 9.7 49.5 24 -9.9 14.2
17:55 1010 29.83 839 24.78 9.9 49.7 22 -10.7 12.7
18:00 1010 29.83 839 24.78 9.6 49.4 24 -10.2 13.6
18:05 1010 29.83 839 24.78 9.9 49.9 22 -10.9 12.4
18:10 1010 29.83 839 24.78 9.8 49.6 22 -10.8 12.5
18:15 1010 29.83 839 24.78 9.7 49.5 21 -11.5 11.2
18:20 1010 29.83 839 24.78 9.3 48.7 23 -11 12.2
18:25 1010 29.83 839 24.78 9.4 48.9 23 -10.7 12.7
18:30 1010 29.83 839 24.78 9.4 48.9 24 -10.4 13.3
18:35 1010 29.83 839 24.78 9.5 49.1 24 -10.3 13.4
18:40 1010 29.83 839 24.78 9.2 48.5 24 -10.4 13.2
18:45 1010 29.83 839 24.78 9.2 48.6 22 -11.6 11.1
18:50 1010 29.83 840 24.81 9 48.3 22 -11.6 11.2
18:55 1010 29.83 840 24.81 9 48.1 23 -11.2 11.8
19:00 1010 29.83 840 24.81 9.1 48.4 22 -11.5 11.4
19:05 1010 29.83 840 24.81 9.1 48.3 21 -12 10.4
19:10 1010 29.83 840 24.81 9.1 48.4 23 -11.2 11.8
19:15 1010 29.83 840 24.81 9 48.2 23 -11.2 11.8
19:20 1011 29.85 840 24.81 8.8 47.9 25 -10.4 13.3
19:25 1011 29.85 840 24.81 8.8 47.8 25 -10.1 13.8
19:30 1011 29.85 840 24.81 8.5 47.3 26 -9.9 14.1
19:35 1011 29.85 840 24.81 8.2 46.8 26 -10 14
19:40 1011 29.85 840 24.81 8 46.4 28 -9.5 14.9
19:45 1011 29.85 840 24.81 7.8 46.1 27 -9.8 14.3
19:50 1011 29.85 840 24.81 7.7 45.9 28 -9.6 14.8
19:55 1011 29.85 840 24.81 7.6 45.7 28 -9.8 14.4
20:00 1011 29.85 840 24.81 7.8 46 28 -9.6 14.7
20:05 1011 29.85 840 24.81 7.8 46.1 28 -9.4 15.2
20:10 1011 29.85 840 24.81 7.8 46.1 29 -9.3 15.2
20:15 1011 29.85 840 24.81 7.9 46.2 29 -9.1 15.6
20:20 1011 29.85 840 24.81 8 46.3 30 -8.6 16.5
20:25 1011 29.85 841 24.83 8 46.3 31 -8.2 17.2
20:30 1011 29.85 841 24.83 7.9 46.2 32 -7.9 17.7
20:35 1011 29.85 841 24.83 7.8 46.1 32 -8 17.7
20:40 1011 29.85 841 24.83 7.8 46 31 -8.1 17.4
20:45 1011 29.85 841 24.83 7.7 45.8 31 -8.4 16.9
20:50 1012 29.88 841 24.83 7.7 45.8 31 -8.5 16.8
20:55 1012 29.88 841 24.83 7.6 45.7 31 -8.3 17.1
21:00 1012 29.88 841 24.83 7.6 45.6 32 -8 17.6
21:05 1012 29.88 841 24.83 7.5 45.5 37 -6.1 21
21:10 1012 29.88 841 24.83 6.4 43.6 44 -4.8 23.4
21:15 1012 29.88 841 24.83 5.8 42.4 49 -4.2 24.5
21:20 1012 29.88 841 24.83 5.6 42.1 50 -4.1 24.6
21:25 1012 29.88 841 24.83 5.7 42.3 44 -5.5 22.2
21:30 1012 29.88 841 24.83 6.1 43 47 -4.5 23.9
21:35 1012 29.88 841 24.83 6 42.9 48 -4.1 24.5
21:40 1012 29.88 841 24.83 5.7 42.3 50 -3.9 25
21:45 1012 29.88 842 24.86 5.8 42.5 46 -4.9 23.2
21:50 1012 29.88 842 24.86 5.9 42.7 49 -4.1 24.7
21:55 1012 29.88 842 24.86 5.3 41.6 50 -4.2 24.4
22:00 1012 29.88 842 24.86 5.2 41.3 51 -4.1 24.6
22:05 1013 29.91 842 24.86 5.2 41.4 48 -4.9 23.2
22:10 1013 29.91 842 24.86 5.5 42 48 -4.5 23.8
22:15 1013 29.91 842 24.86 5.8 42.4 45 -5.3 22.4
22:20 1013 29.91 842 24.86 5.9 42.6 43 -5.7 21.7
22:25 1013 29.91 842 24.86 5.8 42.4 42 -6 21.2
22:30 1013 29.91 842 24.86 5.6 42.2 43 -6 21.2
22:35 1013 29.91 842 24.86 5.6 42 43 -5.9 21.3
22:40 1013 29.91 842 24.86 5.5 41.8 44 -5.9 21.4
22:45 1013 29.91 842 24.86 5.4 41.7 44 -5.9 21.4
22:50 1013 29.91 842 24.86 5.3 41.5 44 -5.9 21.3
22:55 1013 29.91 842 24.86 5.2 41.4 44 -5.9 21.3
23:00 1013 29.91 842 24.86 5.2 41.4 44 -6.1 21
23:05 1013 29.91 842 24.86 5.1 41.2 44 -6.2 20.9
23:10 1013 29.91 842 24.86 5.1 41.2 43 -6.4 20.4
23:15 1013 29.91 842 24.86 5.1 41.2 43 -6.5 20.3
23:20 1013 29.91 842 24.86 5.1 41.2 43 -6.6 20.2
23:25 1013 29.91 843 24.89 5.3 41.5 42 -6.7 20
23:30 1013 29.91 843 24.89 5.3 41.5 42 -6.6 20.1
23:35 1013 29.91 843 24.89 5.3 41.6 42 -6.4 20.5
23:40 1014 29.94 843 24.89 5.3 41.6 43 -6.2 20.8
23:45 1014 29.94 843 24.89 5.2 41.4 43 -6.2 20.8
23:50 1014 29.94 843 24.89 5.2 41.4 44 -6.2 20.9
23:55 1014 29.94 843 24.89 5.2 41.4 44 -6 21.3
24:00 1014 29.94 843 24.89 5.3 41.5 45 -5.8 21.5